sensor_id;sensor_type;location;lat;lon;timestamp;P1;durP1;ratioP1;P2;durP2;ratioP2
43670;SDS011;29267;50.906;7.248;2023-07-09T00:02:17;9.17;;;4.20;;
43670;SDS011;29267;50.906;7.248;2023-07-09T00:04:43;6.00;;;3.53;;
43670;SDS011;29267;50.906;7.248;2023-07-09T00:09:43;8.38;;;3.88;;
43670;SDS011;29267;50.906;7.248;2023-07-09T00:12:16;9.40;;;4.43;;
43670;SDS011;29267;50.906;7.248;2023-07-09T00:14:43;7.88;;;4.60;;
43670;SDS011;29267;50.906;7.248;2023-07-09T00:17:10;5.60;;;3.58;;
43670;SDS011;29267;50.906;7.248;2023-07-09T00:19:51;5.85;;;3.78;;
43670;SDS011;29267;50.906;7.248;2023-07-09T00:22:17;8.30;;;3.85;;
43670;SDS011;29267;50.906;7.248;2023-07-09T00:24:44;8.75;;;4.05;;
43670;SDS011;29267;50.906;7.248;2023-07-09T00:27:12;7.25;;;3.83;;
43670;SDS011;29267;50.906;7.248;2023-07-09T00:29:41;9.75;;;5.05;;
43670;SDS011;29267;50.906;7.248;2023-07-09T00:32:10;7.75;;;3.78;;
43670;SDS011;29267;50.906;7.248;2023-07-09T00:34:40;9.07;;;3.90;;
43670;SDS011;29267;50.906;7.248;2023-07-09T00:37:10;6.10;;;4.00;;
43670;SDS011;29267;50.906;7.248;2023-07-09T00:39:37;10.07;;;4.25;;
43670;SDS011;29267;50.906;7.248;2023-07-09T00:42:05;13.73;;;4.65;;
43670;SDS011;29267;50.906;7.248;2023-07-09T00:44:36;9.85;;;4.57;;
43670;SDS011;29267;50.906;7.248;2023-07-09T00:50:21;8.52;;;4.15;;
43670;SDS011;29267;50.906;7.248;2023-07-09T00:52:54;12.85;;;4.00;;
43670;SDS011;29267;50.906;7.248;2023-07-09T00:55:28;8.57;;;4.53;;
43670;SDS011;29267;50.906;7.248;2023-07-09T00:57:59;7.43;;;3.75;;
43670;SDS011;29267;50.906;7.248;2023-07-09T01:00:34;9.02;;;3.75;;
43670;SDS011;29267;50.906;7.248;2023-07-09T01:03:11;9.90;;;4.18;;
43670;SDS011;29267;50.906;7.248;2023-07-09T01:05:59;8.45;;;4.40;;
43670;SDS011;29267;50.906;7.248;2023-07-09T01:08:27;10.95;;;4.28;;
43670;SDS011;29267;50.906;7.248;2023-07-09T01:10:55;9.40;;;3.70;;
43670;SDS011;29267;50.906;7.248;2023-07-09T01:13:23;6.45;;;4.25;;
43670;SDS011;29267;50.906;7.248;2023-07-09T01:15:51;8.07;;;4.20;;
43670;SDS011;29267;50.906;7.248;2023-07-09T01:18:17;6.63;;;3.95;;
43670;SDS011;29267;50.906;7.248;2023-07-09T01:20:42;9.32;;;4.57;;
43670;SDS011;29267;50.906;7.248;2023-07-09T01:23:09;8.10;;;4.28;;
43670;SDS011;29267;50.906;7.248;2023-07-09T01:25:43;9.40;;;4.25;;
43670;SDS011;29267;50.906;7.248;2023-07-09T01:28:12;8.00;;;3.88;;
43670;SDS011;29267;50.906;7.248;2023-07-09T01:30:39;11.20;;;5.20;;
43670;SDS011;29267;50.906;7.248;2023-07-09T01:33:05;7.68;;;4.35;;
43670;SDS011;29267;50.906;7.248;2023-07-09T01:35:34;11.48;;;4.10;;
43670;SDS011;29267;50.906;7.248;2023-07-09T01:38:02;7.18;;;4.43;;
43670;SDS011;29267;50.906;7.248;2023-07-09T01:40:31;5.60;;;3.90;;
43670;SDS011;29267;50.906;7.248;2023-07-09T01:42:57;8.00;;;4.00;;
43670;SDS011;29267;50.906;7.248;2023-07-09T01:45:23;11.57;;;4.97;;
43670;SDS011;29267;50.906;7.248;2023-07-09T01:47:49;7.22;;;3.75;;
43670;SDS011;29267;50.906;7.248;2023-07-09T01:50:15;8.98;;;4.30;;
43670;SDS011;29267;50.906;7.248;2023-07-09T01:52:41;9.57;;;4.00;;
43670;SDS011;29267;50.906;7.248;2023-07-09T01:55:09;8.30;;;4.15;;
43670;SDS011;29267;50.906;7.248;2023-07-09T01:57:36;9.05;;;4.35;;
43670;SDS011;29267;50.906;7.248;2023-07-09T02:00:03;10.07;;;4.63;;
43670;SDS011;29267;50.906;7.248;2023-07-09T02:02:31;7.35;;;4.05;;
43670;SDS011;29267;50.906;7.248;2023-07-09T02:04:57;6.20;;;3.88;;
43670;SDS011;29267;50.906;7.248;2023-07-09T02:07:24;5.72;;;3.25;;
43670;SDS011;29267;50.906;7.248;2023-07-09T02:09:50;7.72;;;4.18;;
43670;SDS011;29267;50.906;7.248;2023-07-09T02:12:16;9.05;;;4.07;;
43670;SDS011;29267;50.906;7.248;2023-07-09T02:14:43;8.82;;;4.72;;
43670;SDS011;29267;50.906;7.248;2023-07-09T02:17:10;13.13;;;3.95;;
43670;SDS011;29267;50.906;7.248;2023-07-09T02:19:37;7.68;;;3.78;;
43670;SDS011;29267;50.906;7.248;2023-07-09T02:22:03;10.30;;;4.57;;
43670;SDS011;29267;50.906;7.248;2023-07-09T02:24:30;7.97;;;4.45;;
43670;SDS011;29267;50.906;7.248;2023-07-09T02:26:56;6.88;;;3.95;;
43670;SDS011;29267;50.906;7.248;2023-07-09T02:29:23;5.68;;;3.85;;
43670;SDS011;29267;50.906;7.248;2023-07-09T02:31:50;12.00;;;4.20;;
43670;SDS011;29267;50.906;7.248;2023-07-09T02:34:17;12.77;;;4.35;;
43670;SDS011;29267;50.906;7.248;2023-07-09T02:36:44;8.35;;;4.47;;
43670;SDS011;29267;50.906;7.248;2023-07-09T02:39:10;7.47;;;4.00;;
43670;SDS011;29267;50.906;7.248;2023-07-09T02:41:37;10.75;;;4.57;;
43670;SDS011;29267;50.906;7.248;2023-07-09T02:44:04;9.30;;;5.13;;
43670;SDS011;29267;50.906;7.248;2023-07-09T02:46:29;11.27;;;4.30;;
43670;SDS011;29267;50.906;7.248;2023-07-09T02:48:55;6.50;;;3.60;;
43670;SDS011;29267;50.906;7.248;2023-07-09T02:51:21;8.52;;;4.55;;
43670;SDS011;29267;50.906;7.248;2023-07-09T02:53:47;14.02;;;4.50;;
43670;SDS011;29267;50.906;7.248;2023-07-09T02:56:13;7.55;;;4.10;;
43670;SDS011;29267;50.906;7.248;2023-07-09T02:58:39;8.82;;;4.55;;
43670;SDS011;29267;50.906;7.248;2023-07-09T03:01:04;6.47;;;4.40;;
43670;SDS011;29267;50.906;7.248;2023-07-09T03:03:30;9.40;;;4.70;;
43670;SDS011;29267;50.906;7.248;2023-07-09T03:05:56;9.65;;;4.22;;
43670;SDS011;29267;50.906;7.248;2023-07-09T03:08:22;10.52;;;5.50;;
43670;SDS011;29267;50.906;7.248;2023-07-09T03:10:47;9.18;;;4.28;;
43670;SDS011;29267;50.906;7.248;2023-07-09T03:13:13;9.88;;;3.92;;
43670;SDS011;29267;50.906;7.248;2023-07-09T03:15:39;8.35;;;4.57;;
43670;SDS011;29267;50.906;7.248;2023-07-09T03:18:04;6.45;;;4.03;;
43670;SDS011;29267;50.906;7.248;2023-07-09T03:20:30;6.88;;;3.75;;
43670;SDS011;29267;50.906;7.248;2023-07-09T03:22:55;6.53;;;4.15;;
43670;SDS011;29267;50.906;7.248;2023-07-09T03:25:21;9.35;;;4.28;;
43670;SDS011;29267;50.906;7.248;2023-07-09T03:27:47;17.67;;;5.20;;
43670;SDS011;29267;50.906;7.248;2023-07-09T03:30:13;9.43;;;5.65;;
43670;SDS011;29267;50.906;7.248;2023-07-09T03:32:40;7.70;;;4.25;;
43670;SDS011;29267;50.906;7.248;2023-07-09T03:35:05;9.23;;;4.55;;
43670;SDS011;29267;50.906;7.248;2023-07-09T03:37:32;7.07;;;3.88;;
43670;SDS011;29267;50.906;7.248;2023-07-09T03:39:57;8.35;;;4.47;;
43670;SDS011;29267;50.906;7.248;2023-07-09T03:42:23;7.28;;;4.43;;
43670;SDS011;29267;50.906;7.248;2023-07-09T03:44:48;7.38;;;4.28;;
43670;SDS011;29267;50.906;7.248;2023-07-09T03:47:14;9.43;;;5.50;;
43670;SDS011;29267;50.906;7.248;2023-07-09T03:49:39;5.68;;;3.80;;
43670;SDS011;29267;50.906;7.248;2023-07-09T03:52:06;9.55;;;4.45;;
43670;SDS011;29267;50.906;7.248;2023-07-09T03:54:32;10.45;;;4.93;;
43670;SDS011;29267;50.906;7.248;2023-07-09T03:56:58;7.82;;;4.20;;
43670;SDS011;29267;50.906;7.248;2023-07-09T03:59:23;7.93;;;4.20;;
43670;SDS011;29267;50.906;7.248;2023-07-09T04:01:49;8.77;;;4.68;;
43670;SDS011;29267;50.906;7.248;2023-07-09T04:04:15;9.75;;;3.90;;
43670;SDS011;29267;50.906;7.248;2023-07-09T04:06:45;8.35;;;3.75;;
43670;SDS011;29267;50.906;7.248;2023-07-09T04:09:11;8.52;;;3.75;;
43670;SDS011;29267;50.906;7.248;2023-07-09T04:11:36;10.75;;;4.40;;
43670;SDS011;29267;50.906;7.248;2023-07-09T04:14:02;14.30;;;4.45;;
43670;SDS011;29267;50.906;7.248;2023-07-09T04:16:27;8.05;;;4.82;;
43670;SDS011;29267;50.906;7.248;2023-07-09T04:18:53;13.45;;;4.78;;
43670;SDS011;29267;50.906;7.248;2023-07-09T04:21:18;10.52;;;5.15;;
43670;SDS011;29267;50.906;7.248;2023-07-09T04:23:44;9.98;;;4.55;;
43670;SDS011;29267;50.906;7.248;2023-07-09T04:26:13;7.25;;;4.43;;
43670;SDS011;29267;50.906;7.248;2023-07-09T04:28:38;6.85;;;4.00;;
43670;SDS011;29267;50.906;7.248;2023-07-09T04:31:04;9.38;;;4.15;;
43670;SDS011;29267;50.906;7.248;2023-07-09T04:33:30;10.73;;;5.03;;
43670;SDS011;29267;50.906;7.248;2023-07-09T04:35:55;10.80;;;4.78;;
43670;SDS011;29267;50.906;7.248;2023-07-09T04:38:22;6.22;;;3.63;;
43670;SDS011;29267;50.906;7.248;2023-07-09T04:40:47;5.85;;;3.83;;
43670;SDS011;29267;50.906;7.248;2023-07-09T04:43:13;9.82;;;5.32;;
43670;SDS011;29267;50.906;7.248;2023-07-09T04:45:39;12.25;;;4.68;;
43670;SDS011;29267;50.906;7.248;2023-07-09T04:48:05;7.90;;;3.25;;
43670;SDS011;29267;50.906;7.248;2023-07-09T04:50:31;7.05;;;3.55;;
43670;SDS011;29267;50.906;7.248;2023-07-09T04:52:57;6.47;;;3.78;;
43670;SDS011;29267;50.906;7.248;2023-07-09T04:55:23;6.22;;;3.80;;
43670;SDS011;29267;50.906;7.248;2023-07-09T04:57:49;7.93;;;3.20;;
43670;SDS011;29267;50.906;7.248;2023-07-09T05:00:15;7.40;;;3.72;;
43670;SDS011;29267;50.906;7.248;2023-07-09T05:02:41;7.18;;;4.05;;
43670;SDS011;29267;50.906;7.248;2023-07-09T05:05:06;7.95;;;3.92;;
43670;SDS011;29267;50.906;7.248;2023-07-09T05:07:32;5.32;;;3.47;;
43670;SDS011;29267;50.906;7.248;2023-07-09T05:09:58;9.93;;;3.20;;
43670;SDS011;29267;50.906;7.248;2023-07-09T05:12:26;9.23;;;3.15;;
43670;SDS011;29267;50.906;7.248;2023-07-09T05:14:52;10.23;;;3.97;;
43670;SDS011;29267;50.906;7.248;2023-07-09T05:17:19;6.95;;;3.35;;
43670;SDS011;29267;50.906;7.248;2023-07-09T05:19:45;7.82;;;3.53;;
43670;SDS011;29267;50.906;7.248;2023-07-09T05:22:10;5.03;;;2.85;;
43670;SDS011;29267;50.906;7.248;2023-07-09T05:24:36;6.82;;;3.88;;
43670;SDS011;29267;50.906;7.248;2023-07-09T05:27:01;5.72;;;3.28;;
43670;SDS011;29267;50.906;7.248;2023-07-09T05:29:27;3.92;;;2.67;;
43670;SDS011;29267;50.906;7.248;2023-07-09T05:31:53;7.70;;;3.22;;
43670;SDS011;29267;50.906;7.248;2023-07-09T05:34:19;5.68;;;3.65;;
43670;SDS011;29267;50.906;7.248;2023-07-09T05:36:44;4.68;;;3.05;;
43670;SDS011;29267;50.906;7.248;2023-07-09T05:39:10;5.50;;;3.13;;
43670;SDS011;29267;50.906;7.248;2023-07-09T05:41:35;10.23;;;3.50;;
43670;SDS011;29267;50.906;7.248;2023-07-09T05:44:01;11.85;;;3.47;;
43670;SDS011;29267;50.906;7.248;2023-07-09T05:46:27;7.65;;;3.28;;
43670;SDS011;29267;50.906;7.248;2023-07-09T05:48:52;6.65;;;3.45;;
43670;SDS011;29267;50.906;7.248;2023-07-09T05:51:18;6.75;;;2.95;;
43670;SDS011;29267;50.906;7.248;2023-07-09T05:53:44;6.05;;;3.08;;
43670;SDS011;29267;50.906;7.248;2023-07-09T05:56:09;7.53;;;3.67;;
43670;SDS011;29267;50.906;7.248;2023-07-09T05:58:36;4.55;;;3.33;;
43670;SDS011;29267;50.906;7.248;2023-07-09T06:01:02;7.78;;;4.20;;
43670;SDS011;29267;50.906;7.248;2023-07-09T06:03:28;8.02;;;3.53;;
43670;SDS011;29267;50.906;7.248;2023-07-09T06:05:55;4.82;;;3.08;;
43670;SDS011;29267;50.906;7.248;2023-07-09T06:08:22;7.05;;;3.40;;
43670;SDS011;29267;50.906;7.248;2023-07-09T06:10:51;6.25;;;3.25;;
43670;SDS011;29267;50.906;7.248;2023-07-09T06:13:21;8.30;;;3.80;;
43670;SDS011;29267;50.906;7.248;2023-07-09T06:15:48;6.63;;;3.50;;
43670;SDS011;29267;50.906;7.248;2023-07-09T06:18:14;6.78;;;3.70;;
43670;SDS011;29267;50.906;7.248;2023-07-09T06:20:40;7.18;;;2.88;;
43670;SDS011;29267;50.906;7.248;2023-07-09T06:23:05;4.70;;;3.13;;
43670;SDS011;29267;50.906;7.248;2023-07-09T06:25:32;6.13;;;3.58;;
43670;SDS011;29267;50.906;7.248;2023-07-09T06:27:57;5.28;;;3.42;;
43670;SDS011;29267;50.906;7.248;2023-07-09T06:30:23;8.05;;;3.05;;
43670;SDS011;29267;50.906;7.248;2023-07-09T06:32:48;6.15;;;3.83;;
43670;SDS011;29267;50.906;7.248;2023-07-09T06:35:14;4.97;;;3.53;;
43670;SDS011;29267;50.906;7.248;2023-07-09T06:37:40;5.28;;;3.03;;
43670;SDS011;29267;50.906;7.248;2023-07-09T06:40:05;6.90;;;3.10;;
43670;SDS011;29267;50.906;7.248;2023-07-09T06:42:33;4.35;;;3.05;;
43670;SDS011;29267;50.906;7.248;2023-07-09T06:45:00;12.02;;;3.67;;
43670;SDS011;29267;50.906;7.248;2023-07-09T06:47:26;7.70;;;3.40;;
43670;SDS011;29267;50.906;7.248;2023-07-09T06:49:52;5.57;;;3.30;;
43670;SDS011;29267;50.906;7.248;2023-07-09T06:52:17;5.85;;;3.33;;
43670;SDS011;29267;50.906;7.248;2023-07-09T06:54:43;5.60;;;3.45;;
43670;SDS011;29267;50.906;7.248;2023-07-09T06:57:09;5.03;;;3.35;;
43670;SDS011;29267;50.906;7.248;2023-07-09T06:59:34;6.10;;;3.00;;
43670;SDS011;29267;50.906;7.248;2023-07-09T07:02:00;5.68;;;2.65;;
43670;SDS011;29267;50.906;7.248;2023-07-09T07:04:26;5.70;;;2.83;;
43670;SDS011;29267;50.906;7.248;2023-07-09T07:06:52;6.85;;;3.95;;
43670;SDS011;29267;50.906;7.248;2023-07-09T07:09:20;6.40;;;3.42;;
43670;SDS011;29267;50.906;7.248;2023-07-09T07:11:46;4.93;;;3.63;;
43670;SDS011;29267;50.906;7.248;2023-07-09T07:14:11;5.15;;;3.13;;
43670;SDS011;29267;50.906;7.248;2023-07-09T07:16:37;13.15;;;3.40;;
43670;SDS011;29267;50.906;7.248;2023-07-09T07:21:30;9.45;;;3.88;;
43670;SDS011;29267;50.906;7.248;2023-07-09T07:23:56;8.88;;;3.75;;
43670;SDS011;29267;50.906;7.248;2023-07-09T07:26:21;6.10;;;4.40;;
43670;SDS011;29267;50.906;7.248;2023-07-09T07:28:47;5.35;;;3.17;;
43670;SDS011;29267;50.906;7.248;2023-07-09T07:31:13;6.00;;;3.50;;
43670;SDS011;29267;50.906;7.248;2023-07-09T07:33:39;5.05;;;3.30;;
43670;SDS011;29267;50.906;7.248;2023-07-09T07:36:06;6.13;;;3.20;;
43670;SDS011;29267;50.906;7.248;2023-07-09T07:38:33;8.68;;;4.20;;
43670;SDS011;29267;50.906;7.248;2023-07-09T07:40:59;5.15;;;3.60;;
43670;SDS011;29267;50.906;7.248;2023-07-09T07:43:26;4.95;;;2.97;;
43670;SDS011;29267;50.906;7.248;2023-07-09T07:45:51;5.85;;;3.40;;
43670;SDS011;29267;50.906;7.248;2023-07-09T07:48:17;6.20;;;3.38;;
43670;SDS011;29267;50.906;7.248;2023-07-09T07:50:43;10.93;;;3.60;;
43670;SDS011;29267;50.906;7.248;2023-07-09T07:53:10;6.45;;;3.13;;
43670;SDS011;29267;50.906;7.248;2023-07-09T07:55:36;7.93;;;3.63;;
43670;SDS011;29267;50.906;7.248;2023-07-09T07:58:03;6.75;;;3.78;;
43670;SDS011;29267;50.906;7.248;2023-07-09T08:00:29;6.25;;;3.22;;
43670;SDS011;29267;50.906;7.248;2023-07-09T08:02:55;8.93;;;2.97;;
43670;SDS011;29267;50.906;7.248;2023-07-09T08:05:21;8.20;;;3.25;;
43670;SDS011;29267;50.906;7.248;2023-07-09T08:07:48;4.68;;;3.35;;
43670;SDS011;29267;50.906;7.248;2023-07-09T08:10:14;4.45;;;3.28;;
43670;SDS011;29267;50.906;7.248;2023-07-09T08:12:40;3.83;;;3.38;;
43670;SDS011;29267;50.906;7.248;2023-07-09T08:15:06;7.55;;;3.63;;
43670;SDS011;29267;50.906;7.248;2023-07-09T08:17:32;4.60;;;2.90;;
43670;SDS011;29267;50.906;7.248;2023-07-09T08:19:58;11.00;;;3.30;;
43670;SDS011;29267;50.906;7.248;2023-07-09T08:22:23;6.20;;;3.58;;
43670;SDS011;29267;50.906;7.248;2023-07-09T08:24:49;5.72;;;3.40;;
43670;SDS011;29267;50.906;7.248;2023-07-09T08:27:16;5.85;;;3.47;;
43670;SDS011;29267;50.906;7.248;2023-07-09T08:29:42;5.13;;;3.22;;
43670;SDS011;29267;50.906;7.248;2023-07-09T08:32:08;5.25;;;3.30;;
43670;SDS011;29267;50.906;7.248;2023-07-09T08:34:35;5.00;;;3.28;;
43670;SDS011;29267;50.906;7.248;2023-07-09T08:37:01;5.85;;;2.80;;
43670;SDS011;29267;50.906;7.248;2023-07-09T08:39:27;9.38;;;4.15;;
43670;SDS011;29267;50.906;7.248;2023-07-09T08:42:09;4.85;;;3.15;;
43670;SDS011;29267;50.906;7.248;2023-07-09T08:47:33;7.53;;;3.47;;
43670;SDS011;29267;50.906;7.248;2023-07-09T08:50:12;9.10;;;3.53;;
43670;SDS011;29267;50.906;7.248;2023-07-09T08:52:42;6.20;;;3.20;;
43670;SDS011;29267;50.906;7.248;2023-07-09T08:55:11;6.32;;;3.17;;
43670;SDS011;29267;50.906;7.248;2023-07-09T08:57:41;8.63;;;3.15;;
43670;SDS011;29267;50.906;7.248;2023-07-09T09:03:05;4.80;;;3.20;;
43670;SDS011;29267;50.906;7.248;2023-07-09T09:05:39;4.97;;;2.85;;
43670;SDS011;29267;50.906;7.248;2023-07-09T09:10:47;10.63;;;3.65;;
43670;SDS011;29267;50.906;7.248;2023-07-09T09:13:16;5.90;;;3.53;;
43670;SDS011;29267;50.906;7.248;2023-07-09T09:15:46;6.13;;;3.40;;
43670;SDS011;29267;50.906;7.248;2023-07-09T09:18:23;6.88;;;2.95;;
43670;SDS011;29267;50.906;7.248;2023-07-09T09:23:31;4.55;;;2.70;;
43670;SDS011;29267;50.906;7.248;2023-07-09T09:26:04;4.05;;;3.10;;
43670;SDS011;29267;50.906;7.248;2023-07-09T09:28:40;6.70;;;3.90;;
43670;SDS011;29267;50.906;7.248;2023-07-09T09:31:07;4.93;;;3.10;;
43670;SDS011;29267;50.906;7.248;2023-07-09T09:33:36;7.88;;;4.22;;
43670;SDS011;29267;50.906;7.248;2023-07-09T09:36:06;7.43;;;3.75;;
43670;SDS011;29267;50.906;7.248;2023-07-09T09:38:39;8.02;;;2.75;;
43670;SDS011;29267;50.906;7.248;2023-07-09T09:41:04;7.25;;;3.85;;
43670;SDS011;29267;50.906;7.248;2023-07-09T09:43:34;4.50;;;3.03;;
43670;SDS011;29267;50.906;7.248;2023-07-09T09:46:00;5.63;;;3.00;;
43670;SDS011;29267;50.906;7.248;2023-07-09T09:48:32;4.65;;;3.10;;
43670;SDS011;29267;50.906;7.248;2023-07-09T09:50:58;5.57;;;3.75;;
43670;SDS011;29267;50.906;7.248;2023-07-09T09:53:28;6.80;;;3.30;;
43670;SDS011;29267;50.906;7.248;2023-07-09T09:55:59;6.65;;;2.75;;
43670;SDS011;29267;50.906;7.248;2023-07-09T09:58:30;8.13;;;3.25;;
43670;SDS011;29267;50.906;7.248;2023-07-09T10:00:58;6.95;;;3.67;;
43670;SDS011;29267;50.906;7.248;2023-07-09T10:03:34;5.03;;;3.20;;
43670;SDS011;29267;50.906;7.248;2023-07-09T10:06:23;6.55;;;3.45;;
43670;SDS011;29267;50.906;7.248;2023-07-09T10:08:57;6.18;;;3.13;;
43670;SDS011;29267;50.906;7.248;2023-07-09T10:14:31;7.00;;;3.35;;
43670;SDS011;29267;50.906;7.248;2023-07-09T10:17:05;4.43;;;2.90;;
43670;SDS011;29267;50.906;7.248;2023-07-09T10:19:56;8.50;;;3.67;;
43670;SDS011;29267;50.906;7.248;2023-07-09T10:25:28;6.22;;;3.20;;
43670;SDS011;29267;50.906;7.248;2023-07-09T10:36:35;7.93;;;3.47;;
43670;SDS011;29267;50.906;7.248;2023-07-09T10:39:13;7.00;;;2.90;;
43670;SDS011;29267;50.906;7.248;2023-07-09T10:41:47;3.80;;;2.78;;
43670;SDS011;29267;50.906;7.248;2023-07-09T10:44:16;4.57;;;2.95;;
43670;SDS011;29267;50.906;7.248;2023-07-09T10:46:47;7.65;;;2.80;;
43670;SDS011;29267;50.906;7.248;2023-07-09T10:49:17;5.28;;;2.70;;
43670;SDS011;29267;50.906;7.248;2023-07-09T10:54:16;5.50;;;2.65;;
43670;SDS011;29267;50.906;7.248;2023-07-09T10:57:00;5.40;;;3.47;;
43670;SDS011;29267;50.906;7.248;2023-07-09T10:59:35;4.43;;;2.63;;
43670;SDS011;29267;50.906;7.248;2023-07-09T11:05:00;8.55;;;3.05;;
43670;SDS011;29267;50.906;7.248;2023-07-09T11:07:30;4.35;;;2.67;;
43670;SDS011;29267;50.906;7.248;2023-07-09T11:09:58;6.50;;;2.70;;
43670;SDS011;29267;50.906;7.248;2023-07-09T11:15:04;8.23;;;2.97;;
43670;SDS011;29267;50.906;7.248;2023-07-09T11:17:34;8.45;;;3.10;;
43670;SDS011;29267;50.906;7.248;2023-07-09T11:20:15;11.35;;;3.08;;
43670;SDS011;29267;50.906;7.248;2023-07-09T11:22:50;4.93;;;2.88;;
43670;SDS011;29267;50.906;7.248;2023-07-09T11:25:31;7.70;;;3.13;;
43670;SDS011;29267;50.906;7.248;2023-07-09T11:28:07;8.88;;;3.22;;
43670;SDS011;29267;50.906;7.248;2023-07-09T11:30:44;5.75;;;2.97;;
43670;SDS011;29267;50.906;7.248;2023-07-09T11:33:15;10.52;;;2.72;;
43670;SDS011;29267;50.906;7.248;2023-07-09T11:35:47;4.63;;;2.60;;
43670;SDS011;29267;50.906;7.248;2023-07-09T11:38:18;5.85;;;3.30;;
43670;SDS011;29267;50.906;7.248;2023-07-09T11:40:49;7.95;;;3.40;;
43670;SDS011;29267;50.906;7.248;2023-07-09T11:43:31;5.75;;;2.83;;
43670;SDS011;29267;50.906;7.248;2023-07-09T11:46:03;7.20;;;2.97;;
43670;SDS011;29267;50.906;7.248;2023-07-09T11:48:35;6.03;;;3.20;;
43670;SDS011;29267;50.906;7.248;2023-07-09T11:51:07;7.40;;;2.60;;
43670;SDS011;29267;50.906;7.248;2023-07-09T11:53:43;6.60;;;3.10;;
43670;SDS011;29267;50.906;7.248;2023-07-09T11:56:12;4.38;;;2.33;;
43670;SDS011;29267;50.906;7.248;2023-07-09T11:58:47;6.43;;;3.40;;
43670;SDS011;29267;50.906;7.248;2023-07-09T12:01:18;4.57;;;3.13;;
43670;SDS011;29267;50.906;7.248;2023-07-09T12:03:46;10.85;;;4.05;;
43670;SDS011;29267;50.906;7.248;2023-07-09T12:06:21;6.05;;;3.00;;
43670;SDS011;29267;50.906;7.248;2023-07-09T12:08:55;4.30;;;2.55;;
43670;SDS011;29267;50.906;7.248;2023-07-09T12:11:31;5.55;;;3.13;;
43670;SDS011;29267;50.906;7.248;2023-07-09T12:14:02;5.65;;;3.13;;
43670;SDS011;29267;50.906;7.248;2023-07-09T12:16:31;5.30;;;3.10;;
43670;SDS011;29267;50.906;7.248;2023-07-09T12:19:00;6.88;;;2.75;;
43670;SDS011;29267;50.906;7.248;2023-07-09T12:21:26;4.30;;;2.90;;
43670;SDS011;29267;50.906;7.248;2023-07-09T12:23:52;6.43;;;3.15;;
43670;SDS011;29267;50.906;7.248;2023-07-09T12:26:20;7.20;;;3.45;;
43670;SDS011;29267;50.906;7.248;2023-07-09T12:28:53;5.25;;;3.15;;
43670;SDS011;29267;50.906;7.248;2023-07-09T12:31:28;8.95;;;3.00;;
43670;SDS011;29267;50.906;7.248;2023-07-09T12:33:56;11.30;;;3.22;;
43670;SDS011;29267;50.906;7.248;2023-07-09T12:36:26;6.10;;;3.28;;
43670;SDS011;29267;50.906;7.248;2023-07-09T12:38:53;14.93;;;3.70;;
43670;SDS011;29267;50.906;7.248;2023-07-09T12:41:38;7.07;;;3.55;;
43670;SDS011;29267;50.906;7.248;2023-07-09T12:44:18;6.88;;;2.88;;
43670;SDS011;29267;50.906;7.248;2023-07-09T12:46:46;5.32;;;2.65;;
43670;SDS011;29267;50.906;7.248;2023-07-09T12:49:23;5.60;;;3.05;;
43670;SDS011;29267;50.906;7.248;2023-07-09T12:51:51;5.55;;;3.00;;
43670;SDS011;29267;50.906;7.248;2023-07-09T12:54:19;5.95;;;2.80;;
43670;SDS011;29267;50.906;7.248;2023-07-09T12:56:52;4.32;;;2.70;;
43670;SDS011;29267;50.906;7.248;2023-07-09T12:59:19;6.53;;;3.00;;
43670;SDS011;29267;50.906;7.248;2023-07-09T13:01:51;7.13;;;2.90;;
43670;SDS011;29267;50.906;7.248;2023-07-09T13:04:27;3.22;;;2.58;;
43670;SDS011;29267;50.906;7.248;2023-07-09T13:06:55;5.88;;;3.08;;
43670;SDS011;29267;50.906;7.248;2023-07-09T13:09:24;3.90;;;2.58;;
43670;SDS011;29267;50.906;7.248;2023-07-09T13:11:51;5.80;;;3.17;;
43670;SDS011;29267;50.906;7.248;2023-07-09T13:14:18;5.15;;;3.40;;
43670;SDS011;29267;50.906;7.248;2023-07-09T13:16:46;9.32;;;4.45;;
43670;SDS011;29267;50.906;7.248;2023-07-09T13:19:13;4.00;;;2.53;;
43670;SDS011;29267;50.906;7.248;2023-07-09T13:21:39;3.95;;;2.40;;
43670;SDS011;29267;50.906;7.248;2023-07-09T13:24:11;6.70;;;3.22;;
43670;SDS011;29267;50.906;7.248;2023-07-09T13:26:40;5.80;;;3.22;;
43670;SDS011;29267;50.906;7.248;2023-07-09T13:29:15;5.28;;;2.78;;
43670;SDS011;29267;50.906;7.248;2023-07-09T13:31:43;10.15;;;3.03;;
43670;SDS011;29267;50.906;7.248;2023-07-09T13:34:18;9.30;;;2.95;;
43670;SDS011;29267;50.906;7.248;2023-07-09T13:36:48;7.35;;;3.20;;
43670;SDS011;29267;50.906;7.248;2023-07-09T13:39:15;4.90;;;3.03;;
43670;SDS011;29267;50.906;7.248;2023-07-09T13:41:42;5.25;;;2.78;;
43670;SDS011;29267;50.906;7.248;2023-07-09T13:44:14;5.90;;;3.15;;
43670;SDS011;29267;50.906;7.248;2023-07-09T13:46:46;10.85;;;3.58;;
43670;SDS011;29267;50.906;7.248;2023-07-09T13:49:13;6.15;;;2.85;;
43670;SDS011;29267;50.906;7.248;2023-07-09T13:51:43;4.75;;;2.95;;
43670;SDS011;29267;50.906;7.248;2023-07-09T13:54:24;9.25;;;2.80;;
43670;SDS011;29267;50.906;7.248;2023-07-09T13:56:57;4.05;;;2.47;;
43670;SDS011;29267;50.906;7.248;2023-07-09T13:59:23;4.18;;;2.80;;
43670;SDS011;29267;50.906;7.248;2023-07-09T14:01:52;5.40;;;3.05;;
43670;SDS011;29267;50.906;7.248;2023-07-09T14:04:20;5.38;;;2.63;;
43670;SDS011;29267;50.906;7.248;2023-07-09T14:06:47;10.82;;;3.42;;
43670;SDS011;29267;50.906;7.248;2023-07-09T14:09:13;8.02;;;3.10;;
43670;SDS011;29267;50.906;7.248;2023-07-09T14:11:49;11.88;;;3.22;;
43670;SDS011;29267;50.906;7.248;2023-07-09T14:14:23;6.78;;;3.78;;
43670;SDS011;29267;50.906;7.248;2023-07-09T14:16:52;14.15;;;3.75;;
43670;SDS011;29267;50.906;7.248;2023-07-09T14:19:19;7.95;;;2.67;;
43670;SDS011;29267;50.906;7.248;2023-07-09T14:21:47;9.77;;;3.42;;
43670;SDS011;29267;50.906;7.248;2023-07-09T14:24:17;7.68;;;3.50;;
43670;SDS011;29267;50.906;7.248;2023-07-09T14:26:43;10.93;;;3.58;;
43670;SDS011;29267;50.906;7.248;2023-07-09T14:29:11;8.10;;;3.40;;
43670;SDS011;29267;50.906;7.248;2023-07-09T14:31:37;10.05;;;3.50;;
43670;SDS011;29267;50.906;7.248;2023-07-09T14:34:22;8.38;;;3.53;;
43670;SDS011;29267;50.906;7.248;2023-07-09T14:36:48;9.65;;;4.00;;
43670;SDS011;29267;50.906;7.248;2023-07-09T14:39:15;10.57;;;3.88;;
43670;SDS011;29267;50.906;7.248;2023-07-09T14:41:41;13.80;;;4.28;;
43670;SDS011;29267;50.906;7.248;2023-07-09T14:44:15;7.82;;;3.83;;
43670;SDS011;29267;50.906;7.248;2023-07-09T14:46:54;12.30;;;4.68;;
43670;SDS011;29267;50.906;7.248;2023-07-09T14:49:22;15.95;;;5.80;;
43670;SDS011;29267;50.906;7.248;2023-07-09T14:51:49;12.65;;;5.07;;
43670;SDS011;29267;50.906;7.248;2023-07-09T14:54:20;7.93;;;4.40;;
43670;SDS011;29267;50.906;7.248;2023-07-09T14:56:48;8.68;;;4.00;;
43670;SDS011;29267;50.906;7.248;2023-07-09T14:59:15;9.85;;;3.88;;
43670;SDS011;29267;50.906;7.248;2023-07-09T15:01:41;9.07;;;4.25;;
43670;SDS011;29267;50.906;7.248;2023-07-09T15:06:58;12.07;;;4.25;;
43670;SDS011;29267;50.906;7.248;2023-07-09T15:09:25;5.88;;;3.72;;
43670;SDS011;29267;50.906;7.248;2023-07-09T15:11:54;7.93;;;4.00;;
43670;SDS011;29267;50.906;7.248;2023-07-09T15:14:21;7.50;;;3.90;;
43670;SDS011;29267;50.906;7.248;2023-07-09T15:16:49;6.90;;;3.47;;
43670;SDS011;29267;50.906;7.248;2023-07-09T15:19:19;6.88;;;4.05;;
43670;SDS011;29267;50.906;7.248;2023-07-09T15:21:45;9.02;;;4.03;;
43670;SDS011;29267;50.906;7.248;2023-07-09T15:26:43;11.80;;;4.22;;
43670;SDS011;29267;50.906;7.248;2023-07-09T15:29:14;13.13;;;4.50;;
43670;SDS011;29267;50.906;7.248;2023-07-09T15:31:40;7.97;;;4.63;;
43670;SDS011;29267;50.906;7.248;2023-07-09T15:34:06;8.68;;;4.55;;
43670;SDS011;29267;50.906;7.248;2023-07-09T15:36:32;8.93;;;4.22;;
43670;SDS011;29267;50.906;7.248;2023-07-09T15:38:57;8.00;;;4.22;;
43670;SDS011;29267;50.906;7.248;2023-07-09T15:41:23;11.75;;;3.53;;